Latest Weather Observations for Creal Reef

IDQ60801

Issued at 5:05 pm EST Monday 21 April 2014 (issued every 30 minutes, with the page automatically refreshed every 10 minutes)

About weather observations | Map of weather stations | Latest weather observations for QLD | Other Formats
Station Details ID: 200736 Name: CREAL REEF Lat: -20.53 Lon: 150.38 Height: 1.7 m
Data from the previous 72 hours. | See also: Recent months for locations in Queensland
Date/Time
EST
Temp
°C
App
Temp
°C
Dew
Point
Rel
Hum
%
Delta-T
°C
Wind Press
QNH
hPa
Press
MSL
hPa
Rain
since 9 am
mm
Dir
 
Spd
km/h
Gust
km/h
Spd
kts
Gust
kts
21/05:00pm 25.8 - - - - ESE 30 33 16 18 1016.0 - -
21/04:30pm 25.8 - - - - ESE 32 39 17 21 1015.8 - -
21/04:20pm 25.7 - - - - ESE 32 - 17 - - 1015.7 -
21/04:00pm 25.9 - - - - ESE 30 37 16 20 1015.9 - -
21/03:30pm 25.8 - - - - SE 30 37 16 20 1015.9 - -
21/03:20pm 25.9 - - - - ESE 30 - 16 - - 1015.8 -
21/03:00pm 25.9 - - - - ESE 30 37 16 20 1015.8 - -
21/02:30pm 25.8 - - - - ESE 32 37 17 20 1015.7 - -
21/02:20pm 25.8 - - - - ESE 28 - 15 - - 1015.6 -
21/02:00pm 25.9 - - - - ESE 30 33 16 18 1015.8 - -
21/01:30pm 26.0 - - - - ESE 30 33 16 18 1015.9 - -
21/01:20pm 25.9 - - - - ESE 30 - 16 - - 1015.8 -
21/01:00pm 26.0 - - - - ESE 28 32 15 17 1016.2 - -
21/12:30pm 25.8 - - - - ESE 30 35 16 19 1016.4 - -
21/12:20pm 25.8 - - - - ESE 30 - 16 - - 1016.4 -
21/12:00pm 25.8 - - - - ESE 30 35 16 19 1016.7 - -
21/11:30am 25.9 - - - - ESE 30 33 16 18 1017.0 - -
21/11:20am 25.9 - - - - ESE 32 - 17 - - 1017.2 -
21/11:00am 25.9 - - - - ESE 35 39 19 21 1017.5 - -
21/10:30am 25.9 - - - - ESE 33 37 18 20 1017.9 - -
21/10:20am 25.9 - - - - ESE 32 - 17 - - 1017.9 -
21/10:00am 26.0 - - - - ESE 32 39 17 21 1018.1 - -
21/09:30am 25.6 - - - - ESE 30 37 16 20 1018.1 - -
21/09:20am 25.6 - - - - ESE 30 - 16 - - 1018.0 -
21/09:00am 25.7 - - - - E 26 32 14 17 1018.1 - -
21/08:30am 25.9 - - - - E 26 30 14 16 1017.9 - -
21/08:20am 26.0 - - - - E 26 - 14 - - 1017.7 -
21/08:00am 26.0 - - - - E 28 33 15 18 1017.7 - -
21/07:30am 25.9 - - - - ESE 28 33 15 18 1017.6 - -
21/07:20am 25.8 - - - - ESE 26 - 14 - - 1017.4 -
21/07:00am 25.5 - - - - E 26 35 14 19 1017.3 - -
21/06:30am 25.5 - - - - ESE 28 33 15 18 1017.0 - -
21/06:20am 25.5 - - - - ESE 26 - 14 - - 1016.8 -
21/06:00am 25.6 - - - - ESE 28 33 15 18 1016.6 - -
21/05:30am 25.6 - - - - ESE 26 32 14 17 1016.3 - -
21/05:20am 25.5 - - - - ESE 26 - 14 - - 1016.1 -
21/05:00am 25.6 - - - - ESE 26 32 14 17 1016.1 - -
21/04:30am 25.4 - - - - ESE 28 33 15 18 1015.8 - -
21/04:20am 25.4 - - - - ESE 30 - 16 - - 1015.6 -
21/04:00am 25.5 - - - - ESE 28 33 15 18 1015.7 - -
21/03:30am 25.4 - - - - ESE 30 33 16 18 1015.5 - -
21/03:20am 25.5 - - - - E 30 - 16 - - 1015.3 -
21/03:00am 25.4 - - - - E 30 35 16 19 1015.5 - -
21/02:30am 25.2 - - - - SE 24 32 13 17 1015.7 - -
21/02:20am 25.2 - - - - SE 26 - 14 - - 1015.7 -
21/02:00am 25.3 - - - - ESE 28 32 15 17 1015.8 - -
21/01:30am 25.5 - - - - ESE 26 32 14 17 1016.1 - -
21/01:20am 25.4 - - - - ESE 26 - 14 - - 1016.1 -
21/01:00am 25.5 - - - - ESE 26 32 14 17 1016.4 - -
21/12:30am 25.5 - - - - ESE 28 32 15 17 1016.5 - -
21/12:20am 25.5 - - - - ESE 26 - 14 - - 1016.5 -
21/12:00am 25.5 - - - - ESE 28 33 15 18 1016.7 - -
 
Date/Time
EST
Temp
°C
App
Temp
°C
Dew
Point
Rel
Hum
%
Delta-T
°C
Wind Press
QNH
hPa
Press
MSL
hPa
Rain
since 9 am
mm
Dir
 
Spd
km/h
Gust
km/h
Spd
kts
Gust
kts
20/11:30pm 25.4 - - - - ESE 26 30 14 16 1016.9 - -
20/11:20pm 25.4 - - - - ESE 28 - 15 - - 1016.8 -
20/11:00pm 25.5 - - - - ESE 28 35 15 19 1017.0 - -
20/10:30pm 25.4 - - - - ESE 30 33 16 18 1017.0 - -
20/10:20pm 25.4 - - - - ESE 28 - 15 - - 1016.9 -
20/10:00pm 25.5 - - - - ESE 26 30 14 16 1017.2 - -
20/09:30pm 25.5 - - - - ESE 26 32 14 17 1017.3 - -
20/09:20pm 25.6 - - - - ESE 26 - 14 - - 1017.2 -
20/09:00pm 25.5 - - - - ESE 28 33 15 18 1017.3 - -
20/08:30pm 25.5 - - - - ESE 28 33 15 18 1017.3 - -
20/08:20pm 25.5 - - - - SE 28 - 15 - - 1017.1 -
20/08:00pm 25.6 - - - - SE 28 33 15 18 1017.1 - -
20/07:30pm 25.6 - - - - SE 26 30 14 16 1016.8 - -
20/07:20pm 25.6 - - - - SE 26 - 14 - - 1016.6 -
20/07:00pm 25.6 - - - - SE 28 33 15 18 1016.4 - -
20/06:30pm 25.7 - - - - SE 26 32 14 17 1016.1 - -
20/06:20pm 25.7 - - - - SE 26 - 14 - - 1015.8 -
20/06:00pm 25.6 - - - - SE 28 32 15 17 1015.6 - -
20/05:30pm 25.7 - - - - SE 28 33 15 18 1015.4 - -
20/05:20pm 25.7 - - - - SE 28 - 15 - - 1015.2 -
20/05:00pm 25.8 - - - - SE 28 33 15 18 1015.1 - -
20/04:30pm 25.8 - - - - SE 26 30 14 16 1014.8 - -
20/04:20pm 25.8 - - - - SE 28 - 15 - - 1014.6 -
20/04:00pm 25.8 - - - - SE 26 32 14 17 1014.6 - -
20/03:30pm 25.9 - - - - SE 26 30 14 16 1014.5 - -
20/03:20pm 25.7 - - - - SE 26 - 14 - - 1014.4 -
20/03:00pm 25.8 - - - - ESE 24 30 13 16 1014.5 - -
20/02:30pm 25.8 - - - - SE 26 30 14 16 1014.4 - -
20/02:20pm 25.8 - - - - SE 26 - 14 - - 1014.3 -
20/02:00pm 25.8 - - - - SE 24 28 13 15 1014.5 - -
20/01:30pm 25.8 - - - - ESE 26 30 14 16 1014.5 - -
20/01:20pm 25.9 - - - - SE 26 - 14 - - 1014.5 -
20/01:00pm 25.9 - - - - SE 26 32 14 17 1014.8 - -
20/12:30pm 25.9 - - - - SE 28 32 15 17 1015.1 - -
20/12:20pm 26.0 - - - - SE 28 - 15 - - 1015.0 -
20/12:00pm 25.8 - - - - SE 26 32 14 17 1015.4 - -
20/11:30am 25.8 - - - - ESE 22 26 12 14 1015.7 - -
20/11:20am 25.9 - - - - SE 24 - 13 - - 1015.7 -
20/11:00am 25.8 - - - - ESE 24 30 13 16 1016.1 - -
20/10:30am 25.9 - - - - ESE 22 28 12 15 1016.4 - -
20/10:20am 25.8 - - - - ESE 22 - 12 - - 1016.4 -
20/10:00am 25.8 - - - - E 22 26 12 14 1016.6 - -
20/09:30am 25.8 - - - - ESE 22 26 12 14 1016.8 - -
20/09:20am 25.8 - - - - ESE 22 - 12 - - 1016.6 -
20/09:00am 25.7 - - - - E 22 26 12 14 1016.5 - -
20/08:30am 25.5 - - - - ESE 22 26 12 14 1016.1 - -
20/08:20am 25.4 - - - - E 24 - 13 - - 1015.9 -
20/08:00am 25.3 - - - - ESE 24 28 13 15 1015.8 - -
20/07:30am 25.3 - - - - ESE 22 26 12 14 1015.6 - -
20/07:20am 25.3 - - - - E 22 - 12 - - 1015.5 -
20/07:00am 25.2 - - - - ESE 22 26 12 14 1015.4 - -
20/06:30am 25.0 - - - - ESE 20 28 11 15 1015.1 - -
20/06:20am 25.0 - - - - ESE 22 - 12 - - 1014.8 -
20/06:00am 24.8 - - - - ESE 22 24 12 13 1014.8 - -
20/05:30am 24.8 - - - - ESE 22 26 12 14 1014.6 - -
20/05:20am 24.8 - - - - E 22 - 12 - - 1014.4 -
20/05:00am 24.8 - - - - E 26 30 14 16 1014.3 - -
20/04:30am 24.9 - - - - E 24 28 13 15 1014.1 - -
20/04:20am 24.8 - - - - E 22 - 12 - - 1014.0 -
20/04:00am 24.8 - - - - E 20 24 11 13 1014.1 - -
20/03:30am 24.9 - - - - ESE 19 22 10 12 1014.1 - -
20/03:20am 24.8 - - - - ESE 19 - 10 - - 1014.0 -
20/03:00am 24.9 - - - - E 19 22 10 12 1014.1 - -
20/02:30am 25.0 - - - - E 20 24 11 13 1014.2 - -
20/02:20am 24.9 - - - - E 20 - 11 - - 1014.1 -
20/02:00am 24.9 - - - - E 20 24 11 13 1014.3 - -
20/01:30am 25.0 - - - - E 19 22 10 12 1014.6 - -
20/01:20am 25.0 - - - - E 19 - 10 - - 1014.5 -
20/01:00am 25.0 - - - - E 20 22 11 12 1014.8 - -
20/12:30am 25.0 - - - - E 20 24 11 13 1015.0 - -
20/12:20am 25.1 - - - - E 20 - 11 - - 1015.1 -
20/12:00am 25.1 - - - - E 20 24 11 13 1015.3 - -
 
Date/Time
EST
Temp
°C
App
Temp
°C
Dew
Point
Rel
Hum
%
Delta-T
°C
Wind Press
QNH
hPa
Press
MSL
hPa
Rain
since 9 am
mm
Dir
 
Spd
km/h
Gust
km/h
Spd
kts
Gust
kts
19/11:30pm 25.0 - - - - E 19 22 10 12 1015.2 - -
19/11:20pm 25.0 - - - - E 19 - 10 - - 1015.1 -
19/11:00pm 25.1 - - - - E 20 26 11 14 1015.3 - -
19/10:30pm 25.1 - - - - E 20 26 11 14 1015.6 - -
19/10:20pm 25.1 - - - - E 22 - 12 - - 1015.5 -
19/10:00pm 25.1 - - - - E 22 28 12 15 1015.6 - -
19/09:30pm 25.2 - - - - E 20 26 11 14 1015.8 - -
19/09:20pm 25.2 - - - - E 20 - 11 - - 1015.7 -
19/09:00pm 25.2 - - - - E 22 28 12 15 1015.8 - -
19/08:30pm 25.2 - - - - E 20 26 11 14 1015.8 - -
19/08:20pm 25.2 - - - - ESE 19 - 10 - - 1015.7 -
19/08:00pm 25.3 - - - - ESE 20 26 11 14 1015.7 - -
19/07:30pm 25.3 - - - - ESE 20 26 11 14 1015.4 - -
19/07:20pm 25.4 - - - - ESE 17 - 9 - - 1015.2 -
19/07:00pm 25.3 - - - - SE 17 20 9 11 1015.1 - -
19/06:30pm 25.5 - - - - ESE 17 20 9 11 1014.8 - -
19/06:20pm 25.4 - - - - ESE 15 - 8 - - 1014.7 -
19/06:00pm 25.5 - - - - SE 17 20 9 11 1014.6 - -
19/05:30pm 25.5 - - - - ESE 15 17 8 9 1014.4 - -
19/05:20pm 25.7 - - - - SE 17 - 9 - - 1014.2 -
19/05:00pm 25.7 - - - - SSE 15 17 8 9 1014.2 - -
19/04:30pm 25.6 - - - - SE 13 17 7 9 1014.1 - -
19/04:20pm 25.8 - - - - SSE 15 - 8 - - 1013.9 -
19/04:00pm 25.7 - - - - SSE 13 17 7 9 1014.0 - -
19/03:30pm 25.8 - - - - SSE 15 19 8 10 1014.0 - -
19/03:20pm 25.7 - - - - SSE 15 - 8 - - 1013.9 -
19/03:00pm 25.7 - - - - SSE 15 19 8 10 1014.1 - -
19/02:30pm 25.8 - - - - SSE 11 17 6 9 1014.1 - -
19/02:20pm 25.8 - - - - SSE 13 - 7 - - 1014.1 -
19/02:00pm 25.8 - - - - SE 13 17 7 9 1014.3 - -
19/01:30pm 25.9 - - - - SE 13 17 7 9 1014.7 - -
19/01:20pm 25.9 - - - - SE 11 - 6 - - 1014.7 -
19/01:00pm 25.7 - - - - ESE 11 17 6 9 1014.9 - -
19/12:30pm 25.7 - - - - ESE 13 17 7 9 1015.4 - -
19/12:20pm 25.6 - - - - SE 15 - 8 - - 1015.3 -
19/12:00pm 25.7 - - - - ESE 15 19 8 10 1015.6 - -
19/11:30am 25.7 - - - - ESE 15 20 8 11 1015.9 - -
19/11:20am 25.6 - - - - ESE 17 - 9 - - 1016.0 -
19/11:00am 25.7 - - - - ESE 15 20 8 11 1016.4 - -
19/10:30am 25.7 - - - - E 17 20 9 11 1016.7 - -
19/10:20am 25.7 - - - - ESE 17 - 9 - - 1016.7 -
19/10:00am 25.9 - - - - E 17 20 9 11 1016.9 - -
19/09:30am 25.9 - - - - E 17 20 9 11 1017.0 - -
19/09:20am 26.0 - - - - E 17 - 9 - - 1017.0 -
19/09:00am 26.0 - - - - E 13 15 7 8 1016.9 - -
19/08:30am 26.0 - - - - E 13 19 7 10 1016.8 - -
19/08:20am 25.8 - - - - ESE 15 - 8 - - 1016.6 -
19/08:00am 25.9 - - - - ESE 13 17 7 9 1016.7 - -
19/07:30am 25.8 - - - - E 15 17 8 9 1016.5 - -
19/07:20am 25.8 - - - - ESE 15 - 8 - - 1016.3 -
19/07:00am 25.7 - - - - E 13 15 7 8 1016.3 - -
19/06:30am 25.4 - - - - E 13 20 7 11 1016.0 - -
19/06:20am 25.3 - - - - E 13 - 7 - - 1015.8 -
19/06:00am 25.2 - - - - E 13 17 7 9 1015.7 - -
19/05:30am 25.3 - - - - ENE 13 17 7 9 1015.4 - -
19/05:20am 25.3 - - - - ENE 15 - 8 - - 1015.2 -
19/05:00am 25.3 - - - - E 15 19 8 10 1015.1 - -
19/04:30am 25.3 - - - - ENE 13 17 7 9 1015.0 - -
19/04:20am 25.4 - - - - ENE 13 - 7 - - 1014.9 -
19/04:00am 25.3 - - - - ENE 13 17 7 9 1014.9 - -
19/03:30am 25.3 - - - - ENE 15 19 8 10 1014.8 - -
19/03:20am 25.4 - - - - ENE 15 - 8 - - 1014.8 -
19/03:00am 25.4 - - - - ENE 17 20 9 11 1014.9 - -
19/02:30am 25.4 - - - - ENE 17 20 9 11 1015.2 - -
19/02:20am 25.4 - - - - NE 19 - 10 - - 1015.1 -
19/02:00am 25.3 - - - - ENE 19 24 10 13 1015.4 - -
19/01:30am 25.4 - - - - ENE 19 20 10 11 1015.5 - -
19/01:20am 25.4 - - - - ENE 19 - 10 - - 1015.6 -
19/01:00am 25.4 - - - - ENE 17 20 9 11 1015.9 - -
19/12:30am 25.5 - - - - ENE 17 20 9 11 1016.1 - -
19/12:20am 25.4 - - - - ENE 19 - 10 - - 1016.1 -
19/12:00am 25.5 - - - - ENE 20 24 11 13 1016.4 - -
 
Date/Time
EST
Temp
°C
App
Temp
°C
Dew
Point
Rel
Hum
%
Delta-T
°C
Wind Press
QNH
hPa
Press
MSL
hPa
Rain
since 9 am
mm
Dir
 
Spd
km/h
Gust
km/h
Spd
kts
Gust
kts
18/11:30pm 25.6 - - - - ENE 20 24 11 13 1016.4 - -
18/11:20pm 25.6 - - - - ENE 20 - 11 - - 1016.3 -
18/11:00pm 25.6 - - - - ENE 20 24 11 13 1016.5 - -
18/10:30pm 25.6 - - - - E 20 24 11 13 1016.6 - -
18/10:20pm 25.6 - - - - E 20 - 11 - - 1016.5 -
18/10:00pm 25.6 - - - - E 22 26 12 14 1016.5 - -
18/09:30pm 25.6 - - - - E 20 26 11 14 1016.5 - -
18/09:20pm 25.6 - - - - ENE 20 - 11 - - 1016.4 -
18/09:00pm 25.6 - - - - E 19 22 10 12 1016.4 - -
18/08:30pm 25.6 - - - - E 20 24 11 13 1016.2 - -
18/08:20pm 25.5 - - - - E 20 - 11 - - 1016.1 -
18/08:00pm 25.4 - - - - E 20 24 11 13 1016.0 - -
18/07:30pm 25.5 - - - - E 19 22 10 12 1015.7 - -
18/07:20pm 25.6 - - - - E 19 - 10 - - 1015.5 -
18/07:00pm 25.5 - - - - E 19 20 10 11 1015.4 - -
18/06:30pm 25.6 - - - - E 19 20 10 11 1015.1 - -
18/06:20pm 25.7 - - - - ESE 19 - 10 - - 1014.9 -
18/06:00pm 25.6 - - - - E 17 20 9 11 1014.9 - -
18/05:30pm 25.7 - - - - E 15 19 8 10 1014.6 - -
18/05:20pm 25.7 - - - - E 15 - 8 - - 1014.5 -

Other Formats:

Comma delimited format used in spreadsheet applications
http://www.bom.gov.au/fwo/IDQ60801/IDQ60801.94371.axf

JavaScript Object Notation format (JSON) in row-major order
http://www.bom.gov.au/fwo/IDQ60801/IDQ60801.94371.json